This is the latest recevied weather packets stored in our database for station/object DJ2KUA-6. If no packets are shown the sender has not sent any weather packets the latest 10 day(s).
| Time | Temp. | Humidity | Pressure | Rain* | Wind** | Luminosity | Snow |
|---|---|---|---|---|---|---|---|
| 1788028956 | 21.67° C | 59% | 1066 hPa | 0 mm | - | - | - |
| 1788027816 | 22.22° C | 56% | 1066 hPa | 0 mm | - | - | - |
| 1788026675 | 23.33° C | 54% | 1066 hPa | 0 mm | - | - | - |
| 1788025536 | 24.44° C | 51% | 1066 hPa | 0 mm | - | - | - |
| 1788024396 | 25° C | 51% | 1066 hPa | 0 mm | - | - | - |
| 1788023256 | 25° C | 53% | 1066 hPa | 0 mm | - | - | - |
| 1788022116 | 24.44° C | 55% | 1066 hPa | 0 mm | - | - | - |
| 1788020976 | 25° C | 53% | 1066 hPa | 0 mm | - | - | - |
| 1788019836 | 25.56° C | 50% | 1066 hPa | 0 mm | - | - | - |
| 1788018696 | 26.11° C | 49% | 1066 hPa | 0 mm | - | - | - |
| 1788017557 | 26.11° C | 49% | 1066 hPa | 0 mm | - | - | - |
| 1788016416 | 25.56° C | 49% | 1067 hPa | 0 mm | - | - | - |
| 1788015277 | 26.11° C | 47% | 1067 hPa | 0 mm | - | - | - |
| 1788014137 | 27.78° C | 46% | 1067 hPa | 0 mm | - | - | - |
| 1788012997 | 27.78° C | 47% | 1067 hPa | 0 mm | - | - | - |
| 1788010716 | 27.22° C | 49% | 1067 hPa | 0 mm | - | - | - |
| 1788009578 | 25.56° C | 50% | 1067 hPa | 0 mm | - | - | - |
| 1788008437 | 26.67° C | 50% | 1067 hPa | 0 mm | - | - | - |
| 1788007296 | 26.67° C | 49% | 1067 hPa | 0 mm | - | - | - |
| 1788006155 | 26.67° C | 48% | 1067 hPa | 0 mm | - | - | - |
| 1788005015 | 26.67° C | 50% | 1067 hPa | 0 mm | - | - | - |
| 1788003876 | 26.67° C | 51% | 1067 hPa | 0 mm | - | - | - |
| 1788002734 | 26.11° C | 53% | 1068 hPa | 0 mm | - | - | - |
| 1788001596 | 25.56° C | 55% | 1068 hPa | 0 mm | - | - | - |
| 1788000456 | 23.33° C | 59% | 1068 hPa | 0 mm | - | - | - |
* Rain latest hour (hover to see other rain measurements)
** Current wind speed in m/s (hover to see current wind gust speed)